Terminal Aerodrome Forecast
Issued by NWS

Home | Current Version | Previous Version | Text Only | Print | Product List | Glossary On
Versions: 1 2 3 4 5 6 7 8 9 10 11 12 13 14 15
000
FTUS46 KSGX 282340 CCA
TAFPSP
TAF COR
KPSP 282340Z 2900/2924 14010G20KT P6SM SKC
     FM290100 33010G20KT P6SM SKC
     FM290700 VRB06KT P6SM SKC=

USA.gov is the U.S. government's official web portal to all federal, state and local government web resources and services.